sensor_id;sensor_type;location;lat;lon;timestamp;pressure;altitude;pressure_sealevel;temperature;humidity
12360;BME280;6244;51.460;7.090;2023-04-19T00:00:54;101694.81;;;9.66;71.74
12360;BME280;6244;51.460;7.090;2023-04-19T00:05:51;101692.88;;;9.73;72.12
12360;BME280;6244;51.460;7.090;2023-04-19T00:10:49;101679.88;;;9.69;72.77
12360;BME280;6244;51.460;7.090;2023-04-19T00:15:47;101686.81;;;9.70;73.27
12360;BME280;6244;51.460;7.090;2023-04-19T00:20:43;101686.56;;;9.78;73.58
12360;BME280;6244;51.460;7.090;2023-04-19T00:25:40;101685.66;;;9.79;74.30
12360;BME280;6244;51.460;7.090;2023-04-19T00:30:37;101685.63;;;9.81;74.46
12360;BME280;6244;51.460;7.090;2023-04-19T00:35:35;101681.16;;;9.84;74.06
12360;BME280;6244;51.460;7.090;2023-04-19T00:40:31;101682.16;;;9.80;74.36
12360;BME280;6244;51.460;7.090;2023-04-19T00:45:28;101679.53;;;9.80;74.34
12360;BME280;6244;51.460;7.090;2023-04-19T00:50:25;101679.50;;;9.82;74.55
12360;BME280;6244;51.460;7.090;2023-04-19T00:55:23;101688.91;;;9.87;74.55
12360;BME280;6244;51.460;7.090;2023-04-19T01:00:20;101668.16;;;9.80;74.42
12360;BME280;6244;51.460;7.090;2023-04-19T01:05:17;101672.28;;;9.88;74.27
12360;BME280;6244;51.460;7.090;2023-04-19T01:10:14;101668.09;;;9.83;73.88
12360;BME280;6244;51.460;7.090;2023-04-19T01:15:12;101666.56;;;9.76;74.23
12360;BME280;6244;51.460;7.090;2023-04-19T01:20:09;101663.19;;;9.72;74.85
12360;BME280;6244;51.460;7.090;2023-04-19T01:25:07;101652.94;;;9.64;74.98
12360;BME280;6244;51.460;7.090;2023-04-19T01:30:05;101650.31;;;9.64;74.86
12360;BME280;6244;51.460;7.090;2023-04-19T01:35:02;101654.22;;;9.79;74.57
12360;BME280;6244;51.460;7.090;2023-04-19T01:39:59;101653.28;;;9.82;74.69
12360;BME280;6244;51.460;7.090;2023-04-19T01:44:57;101655.97;;;9.79;74.37
12360;BME280;6244;51.460;7.090;2023-04-19T01:49:54;101663.88;;;9.77;74.25
12360;BME280;6244;51.460;7.090;2023-04-19T01:54:50;101655.16;;;9.77;73.85
12360;BME280;6244;51.460;7.090;2023-04-19T01:59:47;101651.16;;;9.65;73.95
12360;BME280;6244;51.460;7.090;2023-04-19T02:04:45;101646.88;;;9.62;73.74
12360;BME280;6244;51.460;7.090;2023-04-19T02:09:42;101646.03;;;9.62;73.68
12360;BME280;6244;51.460;7.090;2023-04-19T02:14:38;101648.41;;;9.69;73.15
12360;BME280;6244;51.460;7.090;2023-04-19T02:19:35;101645.00;;;9.67;73.15
12360;BME280;6244;51.460;7.090;2023-04-19T02:24:34;101648.50;;;9.66;72.96
12360;BME280;6244;51.460;7.090;2023-04-19T02:29:32;101645.13;;;9.63;72.92
12360;BME280;6244;51.460;7.090;2023-04-19T02:34:28;101654.03;;;9.57;73.04
12360;BME280;6244;51.460;7.090;2023-04-19T02:39:25;101655.75;;;9.58;72.85
12360;BME280;6244;51.460;7.090;2023-04-19T02:44:23;101655.75;;;9.58;71.90
12360;BME280;6244;51.460;7.090;2023-04-19T02:49:20;101652.34;;;9.55;72.11
12360;BME280;6244;51.460;7.090;2023-04-19T02:54:16;101647.03;;;9.58;71.69
12360;BME280;6244;51.460;7.090;2023-04-19T02:59:13;101639.97;;;9.60;70.95
12360;BME280;6244;51.460;7.090;2023-04-19T03:04:11;101631.44;;;9.53;70.12
12360;BME280;6244;51.460;7.090;2023-04-19T03:09:07;101631.50;;;9.52;70.03
12360;BME280;6244;51.460;7.090;2023-04-19T03:14:04;101630.63;;;9.51;70.11
12360;BME280;6244;51.460;7.090;2023-04-19T03:19:00;101638.56;;;9.50;69.68
12360;BME280;6244;51.460;7.090;2023-04-19T03:23:58;101633.22;;;9.53;69.57
12360;BME280;6244;51.460;7.090;2023-04-19T03:28:55;101629.84;;;9.49;69.59
12360;BME280;6244;51.460;7.090;2023-04-19T03:33:52;101631.59;;;9.49;69.58
12360;BME280;6244;51.460;7.090;2023-04-19T03:38:48;101624.69;;;9.46;68.91
12360;BME280;6244;51.460;7.090;2023-04-19T03:43:46;101625.66;;;9.44;69.60
12360;BME280;6244;51.460;7.090;2023-04-19T03:48:42;101622.06;;;9.46;69.04
12360;BME280;6244;51.460;7.090;2023-04-19T03:53:39;101616.88;;;9.45;68.38
12360;BME280;6244;51.460;7.090;2023-04-19T03:58:36;101617.88;;;9.40;68.34
12360;BME280;6244;51.460;7.090;2023-04-19T04:03:34;101624.75;;;9.45;66.87
12360;BME280;6244;51.460;7.090;2023-04-19T04:08:30;101626.78;;;9.35;67.10
12360;BME280;6244;51.460;7.090;2023-04-19T04:13:27;101624.59;;;9.21;65.93
12360;BME280;6244;51.460;7.090;2023-04-19T04:18:23;101626.06;;;9.00;64.55
12360;BME280;6244;51.460;7.090;2023-04-19T04:23:23;101628.06;;;8.91;64.92
12360;BME280;6244;51.460;7.090;2023-04-19T04:28:20;101628.38;;;8.81;64.25
12360;BME280;6244;51.460;7.090;2023-04-19T04:33:17;101635.66;;;8.70;64.47
12360;BME280;6244;51.460;7.090;2023-04-19T04:38:13;101635.75;;;8.66;64.25
12360;BME280;6244;51.460;7.090;2023-04-19T04:43:11;101634.22;;;8.59;63.91
12360;BME280;6244;51.460;7.090;2023-04-19T04:48:07;101635.97;;;8.58;64.18
12360;BME280;6244;51.460;7.090;2023-04-19T04:53:04;101640.56;;;8.50;63.98
12360;BME280;6244;51.460;7.090;2023-04-19T04:58:01;101629.09;;;8.54;63.05
12360;BME280;6244;51.460;7.090;2023-04-19T05:03:01;101648.34;;;8.51;63.53
12360;BME280;6244;51.460;7.090;2023-04-19T05:07:58;101641.41;;;8.50;63.73
12360;BME280;6244;51.460;7.090;2023-04-19T05:12:55;101637.16;;;8.46;64.53
12360;BME280;6244;51.460;7.090;2023-04-19T05:17:52;101641.84;;;8.34;65.30
12360;BME280;6244;51.460;7.090;2023-04-19T05:22:49;101640.84;;;8.39;65.48
12360;BME280;6244;51.460;7.090;2023-04-19T05:27:46;101641.69;;;8.40;66.05
12360;BME280;6244;51.460;7.090;2023-04-19T05:32:42;101644.22;;;8.44;66.35
12360;BME280;6244;51.460;7.090;2023-04-19T05:37:40;101635.19;;;8.54;66.13
12360;BME280;6244;51.460;7.090;2023-04-19T05:42:38;101638.59;;;8.58;65.79
12360;BME280;6244;51.460;7.090;2023-04-19T05:47:34;101637.75;;;8.58;64.35
12360;BME280;6244;51.460;7.090;2023-04-19T05:52:31;101629.19;;;8.51;64.16
12360;BME280;6244;51.460;7.090;2023-04-19T05:57:28;101633.53;;;8.52;62.00
12360;BME280;6244;51.460;7.090;2023-04-19T06:02:26;101632.78;;;8.47;61.60
12360;BME280;6244;51.460;7.090;2023-04-19T06:07:22;101634.47;;;8.49;59.43
12360;BME280;6244;51.460;7.090;2023-04-19T06:12:19;101629.16;;;8.52;57.15
12360;BME280;6244;51.460;7.090;2023-04-19T06:17:15;101634.84;;;8.67;55.80
12360;BME280;6244;51.460;7.090;2023-04-19T06:22:19;101636.94;;;8.87;56.09
12360;BME280;6244;51.460;7.090;2023-04-19T06:27:16;101636.47;;;9.02;53.99
12360;BME280;6244;51.460;7.090;2023-04-19T06:32:12;101637.22;;;9.07;53.20
12360;BME280;6244;51.460;7.090;2023-04-19T06:37:08;101637.75;;;8.89;53.37
12360;BME280;6244;51.460;7.090;2023-04-19T06:42:06;101634.13;;;8.93;53.69
12360;BME280;6244;51.460;7.090;2023-04-19T06:47:03;101629.72;;;8.95;53.68
12360;BME280;6244;51.460;7.090;2023-04-19T06:52:00;101623.84;;;8.87;54.22
12360;BME280;6244;51.460;7.090;2023-04-19T06:56:59;101639.69;;;8.80;52.78
12360;BME280;6244;51.460;7.090;2023-04-19T07:01:58;101638.00;;;8.79;52.43
12360;BME280;6244;51.460;7.090;2023-04-19T07:06:54;101637.03;;;8.83;52.48
12360;BME280;6244;51.460;7.090;2023-04-19T07:11:51;101640.25;;;8.93;52.00
12360;BME280;6244;51.460;7.090;2023-04-19T07:16:47;101636.22;;;9.11;52.30
12360;BME280;6244;51.460;7.090;2023-04-19T07:21:45;101626.09;;;9.28;51.85
12360;BME280;6244;51.460;7.090;2023-04-19T07:26:42;101631.28;;;9.30;51.69
12360;BME280;6244;51.460;7.090;2023-04-19T07:31:38;101632.97;;;9.32;50.83
12360;BME280;6244;51.460;7.090;2023-04-19T07:36:36;101627.91;;;9.56;50.47
12360;BME280;6244;51.460;7.090;2023-04-19T07:41:34;101631.19;;;9.89;51.02
12360;BME280;6244;51.460;7.090;2023-04-19T07:46:31;101625.59;;;9.73;48.87
12360;BME280;6244;51.460;7.090;2023-04-19T07:51:27;101620.63;;;9.90;48.07
12360;BME280;6244;51.460;7.090;2023-04-19T07:56:24;101610.09;;;9.92;48.10
12360;BME280;6244;51.460;7.090;2023-04-19T08:01:22;101619.34;;;10.30;47.84
12360;BME280;6244;51.460;7.090;2023-04-19T08:06:19;101617.00;;;10.47;46.23
12360;BME280;6244;51.460;7.090;2023-04-19T08:11:15;101617.41;;;10.60;45.96
12360;BME280;6244;51.460;7.090;2023-04-19T08:16:12;101621.09;;;10.79;45.80
12360;BME280;6244;51.460;7.090;2023-04-19T08:21:10;101628.19;;;11.46;43.45
12360;BME280;6244;51.460;7.090;2023-04-19T08:26:06;101624.44;;;12.17;42.32
12360;BME280;6244;51.460;7.090;2023-04-19T08:31:05;101622.19;;;12.49;40.95
12360;BME280;6244;51.460;7.090;2023-04-19T08:36:02;101638.59;;;12.35;40.56
12360;BME280;6244;51.460;7.090;2023-04-19T08:41:00;101624.03;;;12.67;41.60
12360;BME280;6244;51.460;7.090;2023-04-19T08:45:57;101628.25;;;12.51;40.27
12360;BME280;6244;51.460;7.090;2023-04-19T08:50:55;101623.13;;;12.87;40.05
12360;BME280;6244;51.460;7.090;2023-04-19T08:55:53;101619.63;;;12.86;40.33
12360;BME280;6244;51.460;7.090;2023-04-19T09:00:54;101617.31;;;12.99;39.40
12360;BME280;6244;51.460;7.090;2023-04-19T09:05:51;101616.31;;;13.39;38.12
12360;BME280;6244;51.460;7.090;2023-04-19T09:10:52;101609.56;;;13.52;37.27
12360;BME280;6244;51.460;7.090;2023-04-19T09:15:50;101605.50;;;13.64;37.75
12360;BME280;6244;51.460;7.090;2023-04-19T09:20:49;101600.06;;;13.85;36.26
12360;BME280;6244;51.460;7.090;2023-04-19T09:25:53;101595.25;;;14.10;36.15
12360;BME280;6244;51.460;7.090;2023-04-19T09:30:50;101595.63;;;13.68;35.19
12360;BME280;6244;51.460;7.090;2023-04-19T09:35:48;101595.28;;;13.93;34.23
12360;BME280;6244;51.460;7.090;2023-04-19T09:40:45;101593.25;;;13.98;34.45
12360;BME280;6244;51.460;7.090;2023-04-19T09:45:43;101578.94;;;14.36;33.93
12360;BME280;6244;51.460;7.090;2023-04-19T09:50:54;101585.13;;;14.02;32.00
12360;BME280;6244;51.460;7.090;2023-04-19T09:55:51;101578.41;;;14.47;35.28
12360;BME280;6244;51.460;7.090;2023-04-19T10:00:48;101588.03;;;14.31;32.50
12360;BME280;6244;51.460;7.090;2023-04-19T10:05:48;101566.41;;;14.90;31.11
12360;BME280;6244;51.460;7.090;2023-04-19T10:10:46;101574.75;;;14.98;32.08
12360;BME280;6244;51.460;7.090;2023-04-19T10:15:49;101571.69;;;15.53;32.94
12360;BME280;6244;51.460;7.090;2023-04-19T10:20:50;101552.63;;;15.78;33.22
12360;BME280;6244;51.460;7.090;2023-04-19T10:25:54;101551.88;;;15.76;32.63
12360;BME280;6244;51.460;7.090;2023-04-19T10:30:52;101551.09;;;15.58;32.97
12360;BME280;6244;51.460;7.090;2023-04-19T10:35:49;101547.94;;;15.98;31.48
12360;BME280;6244;51.460;7.090;2023-04-19T10:40:59;101542.53;;;15.08;32.76
12360;BME280;6244;51.460;7.090;2023-04-19T10:45:58;101533.72;;;15.84;34.10
12360;BME280;6244;51.460;7.090;2023-04-19T10:50:58;101529.69;;;16.52;30.19
12360;BME280;6244;51.460;7.090;2023-04-19T10:55:55;101524.38;;;15.79;30.83
12360;BME280;6244;51.460;7.090;2023-04-19T11:01:33;101515.84;;;16.32;30.00
12360;BME280;6244;51.460;7.090;2023-04-19T11:06:31;101505.28;;;16.75;29.75
12360;BME280;6244;51.460;7.090;2023-04-19T11:11:32;101512.06;;;17.60;28.19
12360;BME280;6244;51.460;7.090;2023-04-19T11:16:30;101501.25;;;17.50;26.67
12360;BME280;6244;51.460;7.090;2023-04-19T11:21:26;101510.44;;;17.72;28.25
12360;BME280;6244;51.460;7.090;2023-04-19T11:26:23;101491.84;;;17.32;28.81
12360;BME280;6244;51.460;7.090;2023-04-19T11:31:20;101500.75;;;17.31;28.48
12360;BME280;6244;51.460;7.090;2023-04-19T11:36:19;101470.31;;;17.76;28.01
12360;BME280;6244;51.460;7.090;2023-04-19T11:41:16;101476.72;;;16.93;29.27
12360;BME280;6244;51.460;7.090;2023-04-19T11:46:13;101472.16;;;17.22;29.22
12360;BME280;6244;51.460;7.090;2023-04-19T11:51:10;101454.72;;;17.45;29.10
12360;BME280;6244;51.460;7.090;2023-04-19T11:56:08;101459.84;;;17.21;27.30
12360;BME280;6244;51.460;7.090;2023-04-19T12:01:07;101446.16;;;17.14;29.72
12360;BME280;6244;51.460;7.090;2023-04-19T12:06:04;101455.41;;;16.39;27.88
12360;BME280;6244;51.460;7.090;2023-04-19T12:11:04;101434.06;;;16.13;29.81
12360;BME280;6244;51.460;7.090;2023-04-19T12:16:02;101432.69;;;15.78;31.03
12360;BME280;6244;51.460;7.090;2023-04-19T12:20:59;101429.75;;;15.68;31.05
12360;BME280;6244;51.460;7.090;2023-04-19T12:25:55;101413.50;;;15.44;31.96
12360;BME280;6244;51.460;7.090;2023-04-19T12:30:52;101407.91;;;15.35;31.04
12360;BME280;6244;51.460;7.090;2023-04-19T12:35:49;101409.38;;;15.24;31.39
12360;BME280;6244;51.460;7.090;2023-04-19T12:40:46;101403.81;;;15.15;33.26
12360;BME280;6244;51.460;7.090;2023-04-19T12:45:42;101407.19;;;15.47;33.69
12360;BME280;6244;51.460;7.090;2023-04-19T12:50:39;101396.63;;;15.17;30.64
12360;BME280;6244;51.460;7.090;2023-04-19T12:55:37;101407.94;;;14.89;30.61
12360;BME280;6244;51.460;7.090;2023-04-19T13:00:33;101408.38;;;14.81;33.43
12360;BME280;6244;51.460;7.090;2023-04-19T13:05:30;101390.78;;;14.96;32.92
12360;BME280;6244;51.460;7.090;2023-04-19T13:10:26;101394.03;;;15.01;34.70
12360;BME280;6244;51.460;7.090;2023-04-19T13:15:24;101375.16;;;15.07;34.33
12360;BME280;6244;51.460;7.090;2023-04-19T13:20:21;101372.09;;;15.15;31.39
12360;BME280;6244;51.460;7.090;2023-04-19T13:25:17;101364.97;;;15.01;31.78
12360;BME280;6244;51.460;7.090;2023-04-19T13:30:14;101357.69;;;15.05;33.57
12360;BME280;6244;51.460;7.090;2023-04-19T13:35:12;101339.50;;;14.84;31.38
12360;BME280;6244;51.460;7.090;2023-04-19T13:40:10;101331.97;;;14.92;33.11
12360;BME280;6244;51.460;7.090;2023-04-19T13:45:08;101319.13;;;14.86;32.24
12360;BME280;6244;51.460;7.090;2023-04-19T13:50:05;101323.31;;;14.75;29.77
12360;BME280;6244;51.460;7.090;2023-04-19T13:55:04;101321.72;;;14.72;31.21
12360;BME280;6244;51.460;7.090;2023-04-19T14:00:00;101306.81;;;14.71;31.26
12360;BME280;6244;51.460;7.090;2023-04-19T14:04:57;101295.81;;;14.63;31.19
12360;BME280;6244;51.460;7.090;2023-04-19T14:09:54;101290.38;;;14.66;29.81
12360;BME280;6244;51.460;7.090;2023-04-19T14:14:51;101284.34;;;14.64;28.65
12360;BME280;6244;51.460;7.090;2023-04-19T14:19:48;101282.19;;;14.71;31.68
12360;BME280;6244;51.460;7.090;2023-04-19T14:24:45;101280.38;;;14.71;28.73
12360;BME280;6244;51.460;7.090;2023-04-19T14:29:41;101279.91;;;14.64;29.29
12360;BME280;6244;51.460;7.090;2023-04-19T14:34:39;101259.53;;;14.51;29.91
12360;BME280;6244;51.460;7.090;2023-04-19T14:39:36;101260.44;;;14.51;30.89
12360;BME280;6244;51.460;7.090;2023-04-19T14:44:32;101247.91;;;14.39;29.75
12360;BME280;6244;51.460;7.090;2023-04-19T14:49:29;101252.31;;;14.54;32.28
12360;BME280;6244;51.460;7.090;2023-04-19T14:54:27;101236.78;;;14.64;31.22
12360;BME280;6244;51.460;7.090;2023-04-19T14:59:24;101241.34;;;14.46;30.80
12360;BME280;6244;51.460;7.090;2023-04-19T15:04:20;101230.78;;;14.46;30.10
12360;BME280;6244;51.460;7.090;2023-04-19T15:09:17;101244.56;;;14.35;30.40
12360;BME280;6244;51.460;7.090;2023-04-19T15:14:15;101229.19;;;14.28;30.02
12360;BME280;6244;51.460;7.090;2023-04-19T15:19:11;101231.13;;;14.24;31.97
12360;BME280;6244;51.460;7.090;2023-04-19T15:24:10;101222.97;;;14.29;30.96
12360;BME280;6244;51.460;7.090;2023-04-19T15:29:06;101219.28;;;14.31;30.66
12360;BME280;6244;51.460;7.090;2023-04-19T15:34:05;101214.19;;;14.13;30.04
12360;BME280;6244;51.460;7.090;2023-04-19T15:39:01;101218.81;;;14.09;31.50
12360;BME280;6244;51.460;7.090;2023-04-19T15:43:58;101209.53;;;14.18;31.33
12360;BME280;6244;51.460;7.090;2023-04-19T15:48:55;101207.59;;;14.35;30.48
12360;BME280;6244;51.460;7.090;2023-04-19T15:53:53;101212.84;;;14.05;28.98
12360;BME280;6244;51.460;7.090;2023-04-19T15:58:49;101206.06;;;13.54;28.94
12360;BME280;6244;51.460;7.090;2023-04-19T16:03:46;101206.16;;;13.52;29.94
12360;BME280;6244;51.460;7.090;2023-04-19T16:08:42;101201.53;;;13.56;30.64
12360;BME280;6244;51.460;7.090;2023-04-19T16:13:40;101201.28;;;13.61;28.12
12360;BME280;6244;51.460;7.090;2023-04-19T16:18:36;101195.25;;;13.59;28.89
12360;BME280;6244;51.460;7.090;2023-04-19T16:23:33;101198.91;;;13.56;29.81
12360;BME280;6244;51.460;7.090;2023-04-19T16:28:30;101199.66;;;13.58;29.26
12360;BME280;6244;51.460;7.090;2023-04-19T16:33:28;101191.66;;;13.60;30.03
12360;BME280;6244;51.460;7.090;2023-04-19T16:38:24;101199.81;;;13.39;29.52
12360;BME280;6244;51.460;7.090;2023-04-19T16:43:20;101202.63;;;13.03;30.21
12360;BME280;6244;51.460;7.090;2023-04-19T16:48:17;101199.31;;;12.82;30.15
12360;BME280;6244;51.460;7.090;2023-04-19T16:53:15;101195.66;;;12.85;30.30
12360;BME280;6244;51.460;7.090;2023-04-19T16:58:12;101197.59;;;12.81;29.95
12360;BME280;6244;51.460;7.090;2023-04-19T17:03:09;101196.13;;;12.76;28.72
12360;BME280;6244;51.460;7.090;2023-04-19T17:08:05;101197.75;;;12.61;29.05
12360;BME280;6244;51.460;7.090;2023-04-19T17:13:03;101190.16;;;12.38;30.13
12360;BME280;6244;51.460;7.090;2023-04-19T17:18:00;101190.69;;;12.10;29.85
12360;BME280;6244;51.460;7.090;2023-04-19T17:22:56;101190.06;;;12.04;29.32
12360;BME280;6244;51.460;7.090;2023-04-19T17:27:53;101191.97;;;12.01;31.30
12360;BME280;6244;51.460;7.090;2023-04-19T17:32:51;101185.41;;;11.92;31.09
12360;BME280;6244;51.460;7.090;2023-04-19T17:37:47;101188.38;;;11.85;31.81
12360;BME280;6244;51.460;7.090;2023-04-19T17:42:44;101195.66;;;11.80;31.21
12360;BME280;6244;51.460;7.090;2023-04-19T17:47:40;101192.19;;;11.77;32.65
12360;BME280;6244;51.460;7.090;2023-04-19T17:52:38;101195.69;;;11.97;31.27
12360;BME280;6244;51.460;7.090;2023-04-19T17:57:35;101210.38;;;12.01;30.21
12360;BME280;6244;51.460;7.090;2023-04-19T18:02:32;101198.81;;;12.05;31.26
12360;BME280;6244;51.460;7.090;2023-04-19T18:07:28;101197.53;;;11.95;31.15
12360;BME280;6244;51.460;7.090;2023-04-19T18:12:26;101192.50;;;11.90;31.72
12360;BME280;6244;51.460;7.090;2023-04-19T18:17:26;101202.53;;;11.82;32.52
12360;BME280;6244;51.460;7.090;2023-04-19T18:22:22;101206.94;;;11.82;32.62
12360;BME280;6244;51.460;7.090;2023-04-19T18:27:19;101211.66;;;11.73;32.07
12360;BME280;6244;51.460;7.090;2023-04-19T18:32:17;101222.19;;;11.55;32.79
12360;BME280;6244;51.460;7.090;2023-04-19T18:37:16;101216.59;;;11.43;33.83
12360;BME280;6244;51.460;7.090;2023-04-19T18:42:12;101228.56;;;11.49;33.17
12360;BME280;6244;51.460;7.090;2023-04-19T18:47:09;101226.00;;;11.29;34.11
12360;BME280;6244;51.460;7.090;2023-04-19T18:52:07;101229.00;;;10.80;35.33
12360;BME280;6244;51.460;7.090;2023-04-19T18:57:03;101233.97;;;10.66;35.77
12360;BME280;6244;51.460;7.090;2023-04-19T19:02:00;101237.41;;;10.68;35.84
12360;BME280;6244;51.460;7.090;2023-04-19T19:06:57;101238.34;;;10.67;36.17
12360;BME280;6244;51.460;7.090;2023-04-19T19:11:55;101244.03;;;10.56;36.83
12360;BME280;6244;51.460;7.090;2023-04-19T19:16:51;101249.00;;;10.63;36.86
12360;BME280;6244;51.460;7.090;2023-04-19T19:21:48;101243.97;;;10.58;37.04
12360;BME280;6244;51.460;7.090;2023-04-19T19:26:46;101253.38;;;10.42;37.42
12360;BME280;6244;51.460;7.090;2023-04-19T19:31:47;101250.50;;;10.48;37.33
12360;BME280;6244;51.460;7.090;2023-04-19T19:36:44;101252.56;;;10.40;37.86
12360;BME280;6244;51.460;7.090;2023-04-19T19:41:40;101254.75;;;10.50;38.00
12360;BME280;6244;51.460;7.090;2023-04-19T19:46:37;101258.00;;;10.35;37.98
12360;BME280;6244;51.460;7.090;2023-04-19T19:51:35;101261.00;;;10.26;38.16
12360;BME280;6244;51.460;7.090;2023-04-19T19:56:32;101263.06;;;10.18;39.15
12360;BME280;6244;51.460;7.090;2023-04-19T20:01:28;101261.00;;;10.26;38.88
12360;BME280;6244;51.460;7.090;2023-04-19T20:06:25;101264.28;;;10.09;39.48
12360;BME280;6244;51.460;7.090;2023-04-19T20:11:23;101267.88;;;10.07;39.04
12360;BME280;6244;51.460;7.090;2023-04-19T20:16:19;101270.56;;;10.05;39.40
12360;BME280;6244;51.460;7.090;2023-04-19T20:21:17;101267.09;;;10.05;38.96
12360;BME280;6244;51.460;7.090;2023-04-19T20:26:14;101272.97;;;9.88;40.05
12360;BME280;6244;51.460;7.090;2023-04-19T20:31:12;101270.22;;;9.91;39.97
12360;BME280;6244;51.460;7.090;2023-04-19T20:36:09;101271.97;;;9.90;40.56
12360;BME280;6244;51.460;7.090;2023-04-19T20:41:08;101264.56;;;10.01;40.14
12360;BME280;6244;51.460;7.090;2023-04-19T20:46:04;101264.03;;;9.70;39.85
12360;BME280;6244;51.460;7.090;2023-04-19T20:51:02;101265.22;;;9.61;41.06
12360;BME280;6244;51.460;7.090;2023-04-19T20:55:59;101271.72;;;9.75;40.86
12360;BME280;6244;51.460;7.090;2023-04-19T21:00:57;101264.38;;;9.61;41.00
12360;BME280;6244;51.460;7.090;2023-04-19T21:05:54;101265.50;;;9.77;41.40
12360;BME280;6244;51.460;7.090;2023-04-19T21:10:51;101264.25;;;9.64;41.11
12360;BME280;6244;51.460;7.090;2023-04-19T21:15:49;101255.94;;;9.53;40.71
12360;BME280;6244;51.460;7.090;2023-04-19T21:20:45;101263.13;;;9.48;40.46
12360;BME280;6244;51.460;7.090;2023-04-19T21:25:42;101253.38;;;9.51;40.22
12360;BME280;6244;51.460;7.090;2023-04-19T21:30:40;101255.59;;;9.38;40.84
12360;BME280;6244;51.460;7.090;2023-04-19T21:35:37;101253.88;;;9.37;41.22
12360;BME280;6244;51.460;7.090;2023-04-19T21:40:34;101256.09;;;9.25;41.24
12360;BME280;6244;51.460;7.090;2023-04-19T21:45:30;101250.31;;;9.15;40.29
12360;BME280;6244;51.460;7.090;2023-04-19T21:50:28;101248.00;;;9.07;40.91
12360;BME280;6244;51.460;7.090;2023-04-19T21:55:25;101250.00;;;9.24;40.83
12360;BME280;6244;51.460;7.090;2023-04-19T22:00:21;101237.81;;;9.23;40.20
12360;BME280;6244;51.460;7.090;2023-04-19T22:05:18;101239.91;;;9.13;39.56
12360;BME280;6244;51.460;7.090;2023-04-19T22:10:16;101231.94;;;9.17;40.96
12360;BME280;6244;51.460;7.090;2023-04-19T22:15:12;101233.09;;;9.09;40.31
12360;BME280;6244;51.460;7.090;2023-04-19T22:20:11;101228.63;;;9.11;40.18
12360;BME280;6244;51.460;7.090;2023-04-19T22:25:09;101224.31;;;9.10;39.19
12360;BME280;6244;51.460;7.090;2023-04-19T22:30:08;101219.19;;;9.07;39.15
12360;BME280;6244;51.460;7.090;2023-04-19T22:35:05;101204.09;;;9.14;39.13
12360;BME280;6244;51.460;7.090;2023-04-19T22:40:02;101201.38;;;8.94;38.73
12360;BME280;6244;51.460;7.090;2023-04-19T22:45:01;101204.41;;;8.81;39.08
12360;BME280;6244;51.460;7.090;2023-04-19T22:49:59;101193.59;;;8.91;38.72
12360;BME280;6244;51.460;7.090;2023-04-19T22:54:55;101194.81;;;8.82;39.60
12360;BME280;6244;51.460;7.090;2023-04-19T22:59:52;101189.03;;;8.72;39.25
12360;BME280;6244;51.460;7.090;2023-04-19T23:04:48;101183.13;;;8.66;39.60
12360;BME280;6244;51.460;7.090;2023-04-19T23:09:46;101176.00;;;8.71;39.67
12360;BME280;6244;51.460;7.090;2023-04-19T23:14:43;101175.66;;;8.55;39.51
12360;BME280;6244;51.460;7.090;2023-04-19T23:19:42;101158.25;;;8.54;40.19
12360;BME280;6244;51.460;7.090;2023-04-19T23:24:39;101154.06;;;8.50;39.56
12360;BME280;6244;51.460;7.090;2023-04-19T23:29:36;101150.16;;;8.37;39.36
12360;BME280;6244;51.460;7.090;2023-04-19T23:34:33;101138.03;;;8.34;39.72
12360;BME280;6244;51.460;7.090;2023-04-19T23:39:30;101140.19;;;8.48;39.69
12360;BME280;6244;51.460;7.090;2023-04-19T23:44:26;101129.84;;;8.45;40.10
12360;BME280;6244;51.460;7.090;2023-04-19T23:49:24;101131.16;;;8.57;39.73
12360;BME280;6244;51.460;7.090;2023-04-19T23:54:21;101134.09;;;8.47;40.33
12360;BME280;6244;51.460;7.090;2023-04-19T23:59:20;101110.13;;;8.35;40.61
